createdAt,value
2022-12-01T00:01:13.235Z,81.26
2022-12-01T00:03:40.175Z,81.86
2022-12-01T00:06:11.519Z,81.74
2022-12-01T00:08:38.617Z,81.97
2022-12-01T00:11:08.400Z,81.70
2022-12-01T00:13:36.809Z,81.02
2022-12-01T00:16:17.282Z,81.37
2022-12-01T00:18:44.365Z,80.95
2022-12-01T00:21:18.872Z,81.49
2022-12-01T00:23:49.800Z,81.55
2022-12-01T00:26:17.797Z,81.45
2022-12-01T00:28:44.727Z,81.62
2022-12-01T00:31:12.896Z,81.99
2022-12-01T00:33:40.075Z,81.73
2022-12-01T00:36:07.553Z,82.21
2022-12-01T00:38:34.362Z,82.42
2022-12-01T00:41:01.381Z,82.39
2022-12-01T00:43:28.059Z,81.92
2022-12-01T00:45:56.366Z,81.66
2022-12-01T00:48:23.179Z,81.50
2022-12-01T00:50:52.523Z,80.97
2022-12-01T00:53:19.247Z,81.08
2022-12-01T00:55:46.019Z,81.74
2022-12-01T00:58:12.695Z,81.76
2022-12-01T01:00:39.269Z,80.77
2022-12-01T01:03:08.964Z,81.67
2022-12-01T01:05:39.618Z,80.90
2022-12-01T01:08:08.140Z,81.85
2022-12-01T01:10:38.565Z,82.02
2022-12-01T01:13:05.359Z,82.05
2022-12-01T01:15:31.956Z,81.67
2022-12-01T01:17:58.496Z,81.57
2022-12-01T01:20:25.476Z,81.40
2022-12-01T01:22:52.012Z,82.59
2022-12-01T01:25:18.603Z,81.17
2022-12-01T01:27:45.243Z,81.45
2022-12-01T01:30:12.416Z,81.22
2022-12-01T01:32:39.076Z,81.34
2022-12-01T01:35:06.196Z,81.27
2022-12-01T01:37:32.849Z,82.01
2022-12-01T01:39:59.388Z,81.63
2022-12-01T01:42:26.005Z,81.63
2022-12-01T01:44:55.471Z,82.10
2022-12-01T01:47:34.913Z,82.13
2022-12-01T01:50:09.190Z,81.98
2022-12-01T01:52:38.839Z,81.41
2022-12-01T01:55:06.134Z,81.53
2022-12-01T01:57:34.951Z,81.15
2022-12-01T02:00:10.922Z,81.54
2022-12-01T02:02:40.786Z,81.41
2022-12-01T02:05:12.359Z,80.26
2022-12-01T02:07:40.106Z,80.35
2022-12-01T02:10:13.322Z,79.10
2022-12-01T02:13:01.791Z,80.26
2022-12-01T02:15:54.018Z,79.80
2022-12-01T02:18:33.561Z,80.13
2022-12-01T02:21:00.228Z,79.30
2022-12-01T02:23:44.027Z,79.98
2022-12-01T02:26:22.705Z,80.03
2022-12-01T02:29:07.837Z,79.52
2022-12-01T02:31:51.435Z,80.12
2022-12-01T02:34:29.629Z,80.60
2022-12-01T02:37:05.737Z,80.08
2022-12-01T02:39:42.417Z,80.32
2022-12-01T02:42:39.788Z,79.64
2022-12-01T02:45:13.427Z,78.84
2022-12-01T02:47:42.537Z,80.62
2022-12-01T02:50:11.342Z,80.87
2022-12-01T02:52:40.036Z,80.17
2022-12-01T02:55:07.261Z,79.91
2022-12-01T02:57:33.810Z,79.81
2022-12-01T03:00:01.191Z,79.99
2022-12-01T03:02:44.071Z,80.29
2022-12-01T03:05:26.317Z,80.01
2022-12-01T03:08:05.787Z,79.60
2022-12-01T03:11:07.597Z,79.05
2022-12-01T03:13:41.314Z,79.09
2022-12-01T03:16:11.789Z,79.52
2022-12-01T03:18:53.846Z,79.27
2022-12-01T03:21:40.495Z,78.73
2022-12-01T03:24:29.481Z,79.57
2022-12-01T03:27:00.086Z,78.77
2022-12-01T03:29:36.447Z,79.17
2022-12-01T03:32:15.881Z,79.16
2022-12-01T03:34:57.390Z,78.93
2022-12-01T03:37:33.571Z,78.69
2022-12-01T03:40:03.149Z,79.10
2022-12-01T03:42:37.358Z,78.25
2022-12-01T03:45:17.550Z,78.38
2022-12-01T03:47:45.002Z,78.30
2022-12-01T03:50:14.054Z,78.22
2022-12-01T03:52:49.647Z,77.24
2022-12-01T03:55:21.986Z,77.62
2022-12-01T03:57:52.050Z,78.06
2022-12-01T04:00:19.263Z,77.50
2022-12-01T04:02:46.196Z,77.48
2022-12-01T04:05:13.379Z,77.07
2022-12-01T04:07:40.511Z,76.77
2022-12-01T04:10:08.150Z,77.45
2022-12-01T04:12:34.678Z,76.55
2022-12-01T04:15:06.169Z,77.85
2022-12-01T04:17:32.730Z,77.50
2022-12-01T04:19:59.532Z,78.60
2022-12-01T04:22:26.837Z,78.10
2022-12-01T04:24:54.044Z,77.91
2022-12-01T04:27:20.898Z,77.77
2022-12-01T04:29:47.917Z,78.92
2022-12-01T04:32:14.981Z,79.18
2022-12-01T04:34:41.494Z,78.86
2022-12-01T04:37:09.978Z,79.06
2022-12-01T04:39:36.681Z,79.54
2022-12-01T04:42:03.284Z,78.72
2022-12-01T04:44:34.530Z,78.81
2022-12-01T04:47:02.149Z,79.60
2022-12-01T04:49:29.139Z,79.48
2022-12-01T04:51:55.669Z,79.22
2022-12-01T04:54:22.343Z,79.01
2022-12-01T04:56:49.325Z,78.32
2022-12-01T04:59:16.368Z,78.70
2022-12-01T05:01:43.125Z,78.12
2022-12-01T05:04:13.445Z,77.79
2022-12-01T05:06:40.395Z,77.93
2022-12-01T05:09:07.501Z,77.17
2022-12-01T05:11:35.248Z,77.99
2022-12-01T05:14:02.050Z,78.15
2022-12-01T05:16:34.557Z,77.81
2022-12-01T05:19:22.152Z,77.96
2022-12-01T05:21:50.499Z,77.54
2022-12-01T05:24:17.867Z,77.52
2022-12-01T05:26:45.045Z,77.39
2022-12-01T05:29:12.437Z,77.18
2022-12-01T05:31:39.940Z,76.53
2022-12-01T05:34:07.562Z,77.04
2022-12-01T05:36:34.115Z,77.38
2022-12-01T05:39:00.786Z,77.47
2022-12-01T05:41:27.464Z,77.49
2022-12-01T05:43:54.223Z,78.04
2022-12-01T05:46:20.856Z,78.38
2022-12-01T05:48:47.525Z,78.02
2022-12-01T05:51:16.687Z,76.28
2022-12-01T05:53:44.140Z,77.66
2022-12-01T05:56:11.305Z,77.99
2022-12-01T05:58:37.957Z,77.61
2022-12-01T06:01:04.954Z,78.16
2022-12-01T06:03:31.653Z,78.06
2022-12-01T06:05:58.189Z,77.65
2022-12-01T06:08:24.835Z,78.10
2022-12-01T06:10:51.390Z,77.54
2022-12-01T06:13:17.911Z,77.74
2022-12-01T06:15:44.559Z,77.63
2022-12-01T06:18:11.309Z,77.80
2022-12-01T06:20:37.850Z,77.88
2022-12-01T06:23:04.444Z,78.39
2022-12-01T06:25:31.018Z,78.87
2022-12-01T06:27:58.523Z,78.54
2022-12-01T06:30:25.859Z,77.85
2022-12-01T06:32:52.614Z,77.91
2022-12-01T06:35:19.268Z,78.75
2022-12-01T06:37:45.874Z,78.25
2022-12-01T06:40:13.026Z,78.32
2022-12-01T06:42:39.515Z,78.19
2022-12-01T06:45:06.501Z,78.70
2022-12-01T06:47:33.042Z,78.06
2022-12-01T06:49:59.993Z,78.61
2022-12-01T06:52:26.493Z,77.87
2022-12-01T06:54:53.016Z,77.44
2022-12-01T06:57:19.896Z,77.36
2022-12-01T06:59:47.121Z,77.76
2022-12-01T07:02:14.401Z,77.26
2022-12-01T07:04:40.945Z,77.69
2022-12-01T07:07:07.555Z,77.48
2022-12-01T07:09:34.532Z,77.55
2022-12-01T07:12:01.041Z,77.59
2022-12-01T07:14:27.983Z,78.00
2022-12-01T07:16:54.930Z,76.87
2022-12-01T07:19:21.600Z,78.24
2022-12-01T07:21:48.109Z,77.43
2022-12-01T07:24:14.828Z,78.03
2022-12-01T07:26:42.407Z,78.29
2022-12-01T07:29:09.828Z,78.50
2022-12-01T07:31:38.647Z,77.78
2022-12-01T07:34:05.897Z,76.96
2022-12-01T07:36:32.513Z,77.25
2022-12-01T07:38:59.114Z,78.11
2022-12-01T07:41:25.688Z,77.92
2022-12-01T07:43:52.235Z,77.34
2022-12-01T07:46:23.722Z,78.21
2022-12-01T07:48:51.836Z,78.23
2022-12-01T07:51:19.468Z,77.89
2022-12-01T07:53:47.774Z,77.23
2022-12-01T07:56:14.321Z,77.32
2022-12-01T07:58:41.450Z,77.12
2022-12-01T08:01:14.018Z,75.59
2022-12-01T08:03:41.266Z,76.96
2022-12-01T08:06:09.127Z,76.70
2022-12-01T08:08:38.136Z,76.42
2022-12-01T08:11:10.137Z,76.85
2022-12-01T08:13:36.715Z,76.10
2022-12-01T08:16:08.191Z,76.45
2022-12-01T08:18:35.896Z,76.88
2022-12-01T08:21:03.091Z,76.80
2022-12-01T08:23:30.069Z,76.59
2022-12-01T08:26:00.793Z,78.04
2022-12-01T08:28:27.431Z,76.86
2022-12-01T08:30:54.098Z,76.06
2022-12-01T08:33:20.716Z,76.07
2022-12-01T08:35:47.197Z,75.56
2022-12-01T08:38:13.764Z,75.94
2022-12-01T08:40:40.339Z,74.72
2022-12-01T08:43:07.220Z,75.47
2022-12-01T08:45:33.935Z,76.89
2022-12-01T08:48:00.516Z,75.42
2022-12-01T08:50:28.136Z,76.30
2022-12-01T08:52:55.010Z,74.36
2022-12-01T08:55:22.253Z,76.06
2022-12-01T08:57:48.925Z,74.67
2022-12-01T09:00:16.315Z,73.78
2022-12-01T09:02:42.924Z,73.21
2022-12-01T09:05:09.705Z,72.44
2022-12-01T09:07:36.431Z,72.76
2022-12-01T09:10:03.199Z,72.21
2022-12-01T09:12:29.890Z,72.43
2022-12-01T09:14:56.794Z,73.04
2022-12-01T09:17:23.759Z,73.93
2022-12-01T09:19:50.539Z,72.27
2022-12-01T09:22:17.407Z,72.41
2022-12-01T09:24:44.067Z,73.05
2022-12-01T09:27:10.803Z,71.41
2022-12-01T09:29:37.534Z,71.57
2022-12-01T09:32:04.061Z,71.71
2022-12-01T09:34:30.668Z,71.25
2022-12-01T09:36:58.681Z,70.65
2022-12-01T09:39:25.845Z,71.71
2022-12-01T09:42:06.158Z,71.45
2022-12-01T09:44:57.152Z,70.19
2022-12-01T09:47:37.337Z,72.02
2022-12-01T09:50:11.949Z,70.33
2022-12-01T09:52:41.406Z,70.76
2022-12-01T09:55:14.385Z,71.03
2022-12-01T09:57:42.651Z,70.85
2022-12-01T10:00:27.209Z,71.28
2022-12-01T10:03:09.762Z,69.90
2022-12-01T10:06:10.414Z,70.56
2022-12-01T10:08:36.570Z,71.62
2022-12-01T10:11:16.464Z,69.25
2022-12-01T10:13:43.915Z,69.38
2022-12-01T10:16:18.823Z,69.88
2022-12-01T10:19:03.559Z,71.61
2022-12-01T10:21:54.933Z,72.22
2022-12-01T10:24:46.474Z,72.03
2022-12-01T10:27:37.705Z,72.29
2022-12-01T10:30:15.637Z,72.36
2022-12-01T10:32:50.252Z,70.58
2022-12-01T10:35:18.543Z,70.90
2022-12-01T10:37:46.298Z,70.71
2022-12-01T10:40:15.436Z,70.22
2022-12-01T10:42:50.305Z,70.18
2022-12-01T10:45:23.122Z,70.09
2022-12-01T10:48:17.754Z,70.60
2022-12-01T10:50:47.862Z,70.37
2022-12-01T10:53:23.107Z,70.19
2022-12-01T10:55:56.470Z,69.93
2022-12-01T10:58:23.256Z,71.24
2022-12-01T11:01:03.576Z,69.40
2022-12-01T11:03:33.011Z,69.40
2022-12-01T11:06:04.500Z,70.58
2022-12-01T11:08:39.071Z,72.37
2022-12-01T11:11:06.567Z,71.02
2022-12-01T11:13:36.594Z,71.08
2022-12-01T11:16:06.280Z,71.08
2022-12-01T11:18:39.097Z,69.80
2022-12-01T11:21:16.859Z,71.90
2022-12-01T11:23:49.073Z,70.03
2022-12-01T11:26:20.858Z,70.14
2022-12-01T11:29:21.796Z,68.97
2022-12-01T11:31:51.438Z,72.34
2022-12-01T11:34:21.590Z,72.69
2022-12-01T11:36:53.384Z,71.64
2022-12-01T11:39:38.365Z,69.16
2022-12-01T11:42:22.753Z,69.46
2022-12-01T11:45:24.630Z,69.49
2022-12-01T11:48:01.613Z,70.18
2022-12-01T11:50:31.998Z,69.86
2022-12-01T11:52:59.061Z,69.06
2022-12-01T11:55:28.245Z,69.67
2022-12-01T11:57:59.198Z,69.91
2022-12-01T12:00:29.257Z,68.82
2022-12-01T12:03:14.023Z,69.63
2022-12-01T12:06:38.417Z,68.66
2022-12-01T12:08:53.691Z,68.27
2022-12-01T12:11:35.727Z,67.85
2022-12-01T12:14:26.329Z,69.51
2022-12-01T12:17:18.089Z,68.84
2022-12-01T12:20:08.589Z,68.20
2022-12-01T12:22:58.477Z,69.19
2022-12-01T12:25:44.333Z,68.64
2022-12-01T12:28:27.531Z,68.80
2022-12-01T12:31:31.947Z,69.34
2022-12-01T12:34:03.121Z,69.41
2022-12-01T12:36:42.348Z,71.05
2022-12-01T12:39:22.430Z,69.02
2022-12-01T12:41:54.893Z,67.78
2022-12-01T12:44:42.740Z,69.74
2022-12-01T12:47:33.868Z,68.97
2022-12-01T12:50:19.678Z,69.60
2022-12-01T12:52:51.824Z,69.27
2022-12-01T12:55:33.412Z,70.28
2022-12-01T12:58:23.177Z,70.40
2022-12-01T13:01:03.587Z,70.93
2022-12-01T13:03:57.552Z,70.75
2022-12-01T13:06:34.558Z,70.92
2022-12-01T13:09:27.030Z,71.01
2022-12-01T13:12:02.802Z,71.75
2022-12-01T13:15:01.557Z,72.68
2022-12-01T13:17:35.507Z,70.93
2022-12-01T13:20:02.089Z,70.77
2022-12-01T13:22:35.976Z,70.19
2022-12-01T13:25:04.159Z,70.71
2022-12-01T13:27:40.127Z,70.19
2022-12-01T13:30:19.219Z,71.86
2022-12-01T13:32:47.049Z,71.81
2022-12-01T13:35:19.314Z,70.99
2022-12-01T13:37:45.955Z,71.22
2022-12-01T13:40:20.570Z,71.38
2022-12-01T13:42:55.912Z,71.68
2022-12-01T13:45:22.949Z,72.38
2022-12-01T13:47:52.877Z,70.24
2022-12-01T13:50:44.196Z,70.62
2022-12-01T13:53:19.816Z,71.20
2022-12-01T13:55:59.107Z,71.24
2022-12-01T13:58:42.301Z,70.43
2022-12-01T14:01:41.040Z,70.92
2022-12-01T14:04:10.610Z,72.25
2022-12-01T14:06:50.931Z,71.07
2022-12-01T14:09:31.713Z,73.24
2022-12-01T14:12:34.569Z,72.66
2022-12-01T14:15:05.424Z,72.48
2022-12-01T14:17:37.277Z,71.95
2022-12-01T14:20:14.879Z,71.73
2022-12-01T14:22:45.317Z,72.92
2022-12-01T14:25:24.216Z,72.58
2022-12-01T14:27:57.878Z,72.83
2022-12-01T14:30:44.421Z,72.81
2022-12-01T14:33:39.242Z,73.74
2022-12-01T14:36:10.165Z,73.17
2022-12-01T14:38:37.001Z,73.20
2022-12-01T14:41:09.570Z,73.38
2022-12-01T14:43:56.905Z,73.95
2022-12-01T14:46:26.661Z,72.90
2022-12-01T14:48:55.100Z,72.75
2022-12-01T14:51:30.358Z,72.93
2022-12-01T14:53:58.503Z,74.46
2022-12-01T14:56:26.590Z,74.79
2022-12-01T14:58:57.816Z,74.16
2022-12-01T15:01:30.517Z,74.27
2022-12-01T15:03:59.360Z,74.38
2022-12-01T15:06:28.721Z,75.54
2022-12-01T15:09:33.990Z,76.28
2022-12-01T15:12:09.216Z,76.93
2022-12-01T15:14:47.002Z,76.60
2022-12-01T15:17:32.278Z,76.21
2022-12-01T15:19:59.328Z,75.88
2022-12-01T15:22:33.502Z,76.88
2022-12-01T15:25:15.249Z,76.11
2022-12-01T15:27:43.584Z,76.16
2022-12-01T15:30:15.554Z,75.82
2022-12-01T15:32:45.784Z,74.77
2022-12-01T15:35:23.806Z,74.81
2022-12-01T15:37:52.404Z,74.34
2022-12-01T15:43:23.511Z,74.28
2022-12-01T15:46:01.468Z,74.63
2022-12-01T15:48:32.384Z,75.10
2022-12-01T15:51:12.108Z,74.65
2022-12-01T15:53:45.317Z,74.37
2022-12-01T15:56:12.292Z,75.06
2022-12-01T15:58:48.520Z,74.64
2022-12-01T16:01:20.189Z,75.02
2022-12-01T16:03:57.169Z,75.30
2022-12-01T16:06:28.076Z,75.02
2022-12-01T16:08:59.566Z,74.88
2022-12-01T16:11:27.149Z,75.42
2022-12-01T16:14:06.948Z,75.12
2022-12-01T16:16:47.106Z,74.85
2022-12-01T16:19:16.822Z,75.43
2022-12-01T16:22:14.672Z,76.24
2022-12-01T16:24:53.574Z,75.74
2022-12-01T16:27:31.016Z,76.47
2022-12-01T16:30:01.628Z,75.31
2022-12-01T16:32:33.769Z,76.13
2022-12-01T16:35:00.584Z,75.64
2022-12-01T16:37:28.003Z,75.32
2022-12-01T16:39:54.680Z,74.88
2022-12-01T16:42:22.118Z,76.03
2022-12-01T16:44:50.764Z,75.61
2022-12-01T16:47:25.423Z,76.30
2022-12-01T16:49:52.731Z,77.26
2022-12-01T16:52:43.765Z,76.93
2022-12-01T16:55:35.300Z,77.59
2022-12-01T16:58:01.829Z,76.72
2022-12-01T17:00:29.680Z,76.85
2022-12-01T17:02:57.350Z,77.29
2022-12-01T17:05:24.423Z,76.84
2022-12-01T17:07:51.722Z,77.73
2022-12-01T17:10:18.610Z,76.59
2022-12-01T17:12:45.189Z,77.19
2022-12-01T17:15:12.120Z,77.14
2022-12-01T17:17:39.072Z,77.56
2022-12-01T17:20:06.910Z,77.84
2022-12-01T17:22:33.692Z,76.88
2022-12-01T17:25:02.317Z,77.14
2022-12-01T17:27:29.674Z,76.76
2022-12-01T17:29:56.298Z,77.21
2022-12-01T17:32:22.892Z,76.95
2022-12-01T17:34:49.670Z,76.66
2022-12-01T17:37:20.921Z,77.65
2022-12-01T17:39:49.239Z,77.31
2022-12-01T17:42:16.173Z,77.78
2022-12-01T17:44:42.737Z,77.93
2022-12-01T17:47:09.321Z,76.76
2022-12-01T17:49:36.560Z,77.05
2022-12-01T17:52:04.421Z,76.86
2022-12-01T17:54:31.562Z,77.77
2022-12-01T17:56:58.150Z,77.97
2022-12-01T17:59:24.841Z,77.56
2022-12-01T18:01:51.648Z,78.79
2022-12-01T18:04:18.380Z,77.88
2022-12-01T18:06:47.984Z,77.77
2022-12-01T18:09:19.044Z,78.67
2022-12-01T18:11:45.585Z,77.97
2022-12-01T18:14:12.133Z,77.73
2022-12-01T18:16:38.939Z,78.01
2022-12-01T18:19:05.742Z,77.98
2022-12-01T18:21:34.951Z,77.79
2022-12-01T18:24:03.489Z,78.30
2022-12-01T18:26:32.254Z,77.88
2022-12-01T18:29:01.461Z,78.20
2022-12-01T18:31:29.864Z,78.62
2022-12-01T18:34:04.409Z,78.27
2022-12-01T18:36:33.572Z,77.75
2022-12-01T18:39:01.465Z,77.68
2022-12-01T18:41:28.702Z,77.95
2022-12-01T18:43:55.236Z,76.90
2022-12-01T18:46:22.641Z,78.33
2022-12-01T18:49:00.621Z,78.01
2022-12-01T18:51:27.956Z,78.31
2022-12-01T18:53:56.395Z,77.93
2022-12-01T18:56:23.299Z,77.85
2022-12-01T18:58:57.655Z,77.69
2022-12-01T19:01:32.163Z,77.77
2022-12-01T19:03:59.884Z,78.99
2022-12-01T19:06:27.468Z,77.45
2022-12-01T19:08:55.110Z,78.23
2022-12-01T19:11:22.330Z,77.65
2022-12-01T19:13:48.932Z,78.09
2022-12-01T19:16:18.009Z,78.01
2022-12-01T19:18:45.314Z,79.17
2022-12-01T19:21:16.285Z,78.52
2022-12-01T19:23:45.005Z,77.87
2022-12-01T19:26:22.156Z,78.23
2022-12-01T19:28:49.660Z,78.72
2022-12-01T19:31:19.272Z,79.02
2022-12-01T19:33:46.439Z,78.54
2022-12-01T19:36:15.808Z,78.25
2022-12-01T19:38:42.576Z,78.90
2022-12-01T19:41:09.420Z,78.53
2022-12-01T19:43:37.600Z,78.06
2022-12-01T19:46:13.272Z,78.78
2022-12-01T19:48:40.022Z,78.87
2022-12-01T19:51:07.050Z,78.51
2022-12-01T19:53:34.258Z,78.26
2022-12-01T19:56:03.204Z,78.89
2022-12-01T19:58:33.231Z,78.54
2022-12-01T20:01:11.662Z,78.28
2022-12-01T20:03:38.389Z,79.04
2022-12-01T20:06:13.685Z,79.09
2022-12-01T20:08:40.492Z,79.17
2022-12-01T20:11:07.534Z,79.13
2022-12-01T20:13:35.969Z,78.53
2022-12-01T20:16:14.404Z,79.12
2022-12-01T20:18:42.029Z,78.67
2022-12-01T20:21:17.117Z,78.71
2022-12-01T20:23:49.667Z,79.14
2022-12-01T20:26:18.191Z,78.87
2022-12-01T20:28:49.792Z,79.25
2022-12-01T20:31:24.359Z,78.45
2022-12-01T20:33:53.580Z,78.83
2022-12-01T20:36:21.685Z,79.34
2022-12-01T20:38:48.655Z,79.03
2022-12-01T20:41:15.857Z,79.06
2022-12-01T20:43:42.669Z,79.00
2022-12-01T20:46:09.405Z,78.62
2022-12-01T20:48:36.434Z,78.95
2022-12-01T20:51:05.268Z,78.94
2022-12-01T20:53:32.299Z,79.26
2022-12-01T20:56:03.914Z,79.20
2022-12-01T20:58:34.605Z,78.40
2022-12-01T21:01:13.550Z,78.83
2022-12-01T21:03:42.518Z,79.99
2022-12-01T21:06:11.207Z,80.04
2022-12-01T21:08:39.095Z,79.33
2022-12-01T21:11:45.820Z,79.30
2022-12-01T21:14:19.917Z,79.72
2022-12-01T21:16:49.259Z,79.30
2022-12-01T21:19:28.701Z,78.47
2022-12-01T21:21:55.183Z,78.59
2022-12-01T21:24:33.180Z,78.68
2022-12-01T21:27:08.714Z,79.17
2022-12-01T21:29:41.353Z,78.70
2022-12-01T21:32:19.781Z,79.03
2022-12-01T21:34:47.774Z,79.29
2022-12-01T21:37:21.096Z,80.32
2022-12-01T21:39:51.023Z,80.22
2022-12-01T21:42:25.233Z,80.19
2022-12-01T21:44:52.502Z,80.81
2022-12-01T21:47:22.220Z,81.00
2022-12-01T21:49:58.059Z,80.79
2022-12-01T21:52:30.274Z,80.24
2022-12-01T21:55:17.106Z,80.70
2022-12-01T21:57:50.993Z,80.39
2022-12-01T22:00:26.840Z,81.06
2022-12-01T22:03:01.649Z,80.92
2022-12-01T22:05:35.332Z,80.27
2022-12-01T22:08:18.042Z,80.93
2022-12-01T22:10:54.248Z,80.35
2022-12-01T22:14:07.478Z,81.07
2022-12-01T22:16:36.877Z,80.98
2022-12-01T22:19:38.229Z,80.52
2022-12-01T22:22:25.813Z,80.36
2022-12-01T22:25:01.805Z,80.03
2022-12-01T22:27:31.340Z,80.23
2022-12-01T22:30:00.994Z,80.68
2022-12-01T22:32:35.628Z,81.12
2022-12-01T22:35:21.174Z,80.62
2022-12-01T22:37:50.437Z,80.60
2022-12-01T22:40:37.628Z,80.87
2022-12-01T22:43:22.577Z,81.27
2022-12-01T22:45:50.767Z,79.97
2022-12-01T22:48:44.700Z,80.39
2022-12-01T22:51:14.195Z,81.01
2022-12-01T22:53:41.831Z,80.78
2022-12-01T22:56:31.151Z,79.15
2022-12-01T22:58:58.001Z,80.11
2022-12-01T23:01:32.898Z,79.93
2022-12-01T23:04:33.405Z,80.13
2022-12-01T23:07:08.876Z,80.50
2022-12-01T23:09:45.051Z,80.50
2022-12-01T23:12:11.675Z,80.54
2022-12-01T23:14:50.314Z,81.05
2022-12-01T23:17:21.664Z,81.02
2022-12-01T23:19:51.335Z,81.20
2022-12-01T23:22:18.444Z,81.21
2022-12-01T23:24:46.132Z,81.16
2022-12-01T23:27:13.541Z,81.27
2022-12-01T23:29:40.098Z,81.01
2022-12-01T23:32:06.859Z,80.43
2022-12-01T23:34:33.926Z,80.92
2022-12-01T23:37:00.976Z,81.60
2022-12-01T23:39:35.713Z,81.51
2022-12-01T23:42:03.004Z,81.59
2022-12-01T23:44:38.381Z,81.57
2022-12-01T23:47:17.214Z,81.22
2022-12-01T23:49:45.162Z,80.51
2022-12-01T23:52:16.698Z,81.35
2022-12-01T23:54:43.384Z,81.22
2022-12-01T23:57:24.519Z,81.47
2022-12-01T23:59:58.242Z,81.63
